Time;durP1;ratioP1;P1;durP2;ratioP2;P2;SDS_P1;SDS_P2;PMS_P1;PMS_P2;Temp;Humidity;BMP_temperature;BMP_pressure;BME280_temperature;BME280_humidity;BME280_pressure;Samples;Min_cycle;Max_cycle;Signal;HPM_P1;HPM_P2
2023/04/06 00:00:31;;;;;;;;;;;12.70;62.50;;;;;;5050274;28;19924;-74
2023/04/06 00:02:57;;;;;;;;;;;12.70;62.60;;;;;;5016973;28;19982;-74
2023/04/06 00:05:23;;;;;;;;;;;12.70;62.50;;;;;;5035844;28;19921;-74
2023/04/06 00:07:49;;;;;;;;;;;12.70;62.70;;;;;;5034743;28;19964;-73
2023/04/06 00:10:15;;;;;;;;;;;12.70;62.70;;;;;;5036623;28;19924;-73
2023/04/06 00:12:41;;;;;;;;;;;12.60;62.70;;;;;;5035393;28;19956;-74
2023/04/06 00:15:07;;;;;;;;;;;12.60;62.70;;;;;;5015717;28;19979;-73
2023/04/06 00:17:33;;;;;;;;;;;12.60;62.60;;;;;;5035131;28;20304;-73
2023/04/06 00:19:59;;;;;;;;;;;12.60;62.70;;;;;;5033972;28;19924;-73
2023/04/06 00:22:25;;;;;;;;;;;12.60;62.70;;;;;;5035764;28;19979;-73
2023/04/06 00:24:50;;;;;;;;;;;12.60;62.70;;;;;;5034575;28;20400;-73
2023/04/06 00:27:16;;;;;;;;;;;12.60;62.70;;;;;;5034924;28;19952;-73
2023/04/06 00:29:43;;;;;;;;;;;12.60;62.70;;;;;;5035728;28;19920;-73
2023/04/06 00:32:09;;;;;;;;;;;12.50;62.70;;;;;;5033426;28;19927;-73
2023/04/06 00:34:35;;;;;;;;;;;12.50;62.70;;;;;;5035162;28;19972;-73
2023/04/06 00:37:01;;;;;;;;;;;12.50;62.80;;;;;;5049732;28;20445;-73
2023/04/06 00:39:26;;;;;;;;;;;12.50;62.60;;;;;;5035551;28;21595;-73
2023/04/06 00:41:53;;;;;;;;;;;12.40;62.60;;;;;;5046327;28;19960;-73
2023/04/06 00:44:19;;;;;;;;;;;12.50;62.80;;;;;;5015336;28;20423;-73
2023/04/06 00:46:45;;;;;;;;;;;12.50;62.70;;;;;;5015796;28;19917;-74
2023/04/06 00:49:11;;;;;;;;;;;12.50;62.80;;;;;;5016158;28;19913;-73
2023/04/06 00:51:37;;;;;;;;;;;12.40;62.80;;;;;;5030002;28;20190;-73
2023/04/06 00:54:03;;;;;;;;;;;12.40;62.80;;;;;;5029898;28;19921;-73
2023/04/06 00:56:31;;;;;;;;;;;12.40;62.90;;;;;;5029877;28;19967;-73
2023/04/06 00:58:57;;;;;;;;;;;12.40;62.90;;;;;;5014783;28;19917;-73
2023/04/06 01:01:24;;;;;;;;;;;12.40;62.90;;;;;;5030536;28;20400;-74
2023/04/06 01:03:52;;;;;;;;;;;12.40;62.90;;;;;;5013625;28;19931;-73
2023/04/06 01:06:19;;;;;;;;;;;12.40;63.50;;;;;;5013387;28;19929;-74
2023/04/06 01:08:54;;;;;;;;;;;12.40;62.90;;;;;;5029874;28;19928;-73
2023/04/06 01:11:21;;;;;;;;;;;12.40;62.90;;;;;;5012984;28;19921;-73
2023/04/06 01:13:49;;;;;;;;;;;12.30;62.90;;;;;;5012842;28;19918;-73
2023/04/06 01:16:28;;;;;;;;;;;12.30;63.00;;;;;;5014045;28;19928;-73
2023/04/06 01:19:10;;;;;;;;;;;12.30;62.90;;;;;;5029775;28;20387;-74
2023/04/06 01:21:36;;;;;;;;;;;12.30;63.00;;;;;;5029978;28;19921;-74
2023/04/06 01:24:13;;;;;;;;;;;12.20;63.00;;;;;;5030135;28;20423;-73
2023/04/06 01:26:54;;;;;;;;;;;12.20;62.80;;;;;;5030247;28;19928;-73
2023/04/06 01:29:20;;;;;;;;;;;12.20;62.90;;;;;;5014956;28;19921;-73
2023/04/06 01:31:46;;;;;;;;;;;12.20;62.90;;;;;;5013538;28;20308;-73
2023/04/06 01:34:12;;;;;;;;;;;12.20;62.80;;;;;;5034978;28;19940;-73
2023/04/06 01:36:38;;;;;;;;;;;12.20;62.80;;;;;;5018979;28;20596;-73
2023/04/06 01:39:24;;;;;;;;;;;12.20;62.70;;;;;;5017791;28;20365;-72
2023/04/06 01:41:50;;;;;;;;;;;12.20;62.80;;;;;;5021952;28;19929;-74
2023/04/06 01:44:18;;;;;;;;;;;12.20;63.00;;;;;;5017622;28;19925;-74
2023/04/06 01:46:49;;;;;;;;;;;12.10;62.90;;;;;;5000601;28;19921;-73
2023/04/06 01:49:18;;;;;;;;;;;12.10;62.80;;;;;;5033242;28;19917;-74
2023/04/06 01:51:49;;;;;;;;;;;12.10;62.90;;;;;;5018029;28;19928;-75
2023/04/06 01:54:15;;;;;;;;;;;12.10;62.90;;;;;;5031852;28;19976;-75
2023/04/06 01:57:00;;;;;;;;;;;12.10;63.00;;;;;;5017882;28;19925;-75
2023/04/06 01:59:32;;;;;;;;;;;12.10;62.80;;;;;;5018380;28;19921;-75
2023/04/06 02:02:02;;;;;;;;;;;12.10;62.90;;;;;;5032486;28;19940;-74
2023/04/06 02:04:29;;;;;;;;;;;12.00;63.00;;;;;;5000936;28;19921;-74
2023/04/06 02:07:05;;;;;;;;;;;12.00;62.80;;;;;;5032294;28;19972;-75
2023/04/06 02:09:31;;;;;;;;;;;12.00;62.80;;;;;;5033488;28;19921;-75
2023/04/06 02:11:57;;;;;;;;;;;12.00;62.70;;;;;;5016816;28;19921;-75
2023/04/06 02:14:25;;;;;;;;;;;12.00;62.80;;;;;;5019071;28;20498;-75
2023/04/06 02:16:52;;;;;;;;;;;12.00;62.90;;;;;;5020981;28;20395;-74
2023/04/06 02:19:21;;;;;;;;;;;11.90;62.90;;;;;;5019610;28;20399;-74
2023/04/06 02:21:47;;;;;;;;;;;12.00;62.80;;;;;;5016303;28;19925;-75
2023/04/06 02:24:13;;;;;;;;;;;11.90;62.80;;;;;;5032970;28;19971;-75
2023/04/06 02:26:39;;;;;;;;;;;11.90;62.90;;;;;;5017767;28;19921;-75
2023/04/06 02:29:05;;;;;;;;;;;11.90;63.00;;;;;;5033569;28;19932;-74
2023/04/06 02:31:32;;;;;;;;;;;11.90;62.90;;;;;;5032779;28;19949;-73
2023/04/06 02:33:59;;;;;;;;;;;11.90;62.90;;;;;;5017661;28;19922;-73
2023/04/06 02:36:28;;;;;;;;;;;11.80;62.90;;;;;;5015900;28;19922;-74
2023/04/06 02:38:54;;;;;;;;;;;11.90;63.00;;;;;;5017764;28;19928;-73
2023/04/06 02:41:21;;;;;;;;;;;11.90;63.00;;;;;;5028186;28;19926;-73
2023/04/06 02:43:47;;;;;;;;;;;11.90;62.90;;;;;;5027554;28;19934;-73
2023/04/06 02:46:22;;;;;;;;;;;11.90;62.90;;;;;;4997637;28;19967;-74
2023/04/06 02:48:47;;;;;;;;;;;11.90;63.00;;;;;;5027113;28;20438;-74
2023/04/06 02:51:14;;;;;;;;;;;11.90;63.00;;;;;;5028929;28;20011;-74
2023/04/06 02:53:43;;;;;;;;;;;11.80;62.90;;;;;;5028945;28;19926;-73
2023/04/06 02:56:10;;;;;;;;;;;11.90;62.90;;;;;;4995125;28;19983;-75
2023/04/06 02:58:46;;;;;;;;;;;11.80;62.80;;;;;;5027891;28;19957;-74
2023/04/06 03:01:12;;;;;;;;;;;11.80;62.90;;;;;;4996555;28;20404;-73
2023/04/06 03:03:40;;;;;;;;;;;11.80;62.90;;;;;;5028676;28;19975;-73
2023/04/06 03:06:11;;;;;;;;;;;11.80;62.80;;;;;;5012519;28;19928;-72
2023/04/06 03:08:37;;;;;;;;;;;11.80;62.80;;;;;;5028081;28;19925;-74
2023/04/06 03:11:03;;;;;;;;;;;11.80;62.80;;;;;;4996299;28;19922;-74
2023/04/06 03:13:38;;;;;;;;;;;11.80;62.70;;;;;;5012268;28;19964;-74
2023/04/06 03:16:04;;;;;;;;;;;11.80;62.60;;;;;;4996746;28;19933;-75
2023/04/06 03:18:31;;;;;;;;;;;11.80;62.80;;;;;;4995817;28;19921;-75
2023/04/06 03:20:57;;;;;;;;;;;11.80;62.60;;;;;;4999169;28;19925;-75
2023/04/06 03:23:30;;;;;;;;;;;11.80;62.60;;;;;;4994636;28;19933;-75
2023/04/06 03:25:59;;;;;;;;;;;11.80;62.50;;;;;;4994606;28;19918;-75
2023/04/06 03:28:25;;;;;;;;;;;11.70;62.50;;;;;;4995659;28;20008;-76
2023/04/06 03:30:57;;;;;;;;;;;11.80;62.60;;;;;;4996016;28;19922;-75
2023/04/06 03:33:46;;;;;;;;;;;11.80;62.50;;;;;;4973734;28;19929;-76
2023/04/06 03:36:37;;;;;;;;;;;11.80;62.60;;;;;;4995606;28;19926;-76
2023/04/06 03:39:05;;;;;;;;;;;11.80;62.60;;;;;;4994798;28;19932;-75
2023/04/06 03:41:34;;;;;;;;;;;11.80;62.60;;;;;;5000387;28;19929;-76
2023/04/06 03:44:09;;;;;;;;;;;11.80;62.50;;;;;;4986823;28;19951;-78
2023/04/06 03:46:36;;;;;;;;;;;11.80;62.60;;;;;;5001739;28;20195;-79
2023/04/06 03:49:02;;;;;;;;;;;11.80;63.10;;;;;;4984831;28;20032;-78
2023/04/06 03:51:29;;;;;;;;;;;11.80;62.60;;;;;;4998296;28;19979;-78
2023/04/06 03:53:55;;;;;;;;;;;11.80;62.50;;;;;;4998820;28;19968;-78
2023/04/06 03:56:20;;;;;;;;;;;11.80;62.40;;;;;;5001874;28;20377;-78
2023/04/06 03:58:50;;;;;;;;;;;11.80;62.30;;;;;;4999185;28;19918;-78
2023/04/06 04:01:17;;;;;;;;;;;11.80;62.50;;;;;;5001208;28;19918;-78
2023/04/06 04:03:43;;;;;;;;;;;11.80;62.60;;;;;;5001717;28;20020;-76
2023/04/06 04:06:09;;;;;;;;;;;11.80;62.50;;;;;;4981719;28;20374;-78
2023/04/06 04:08:35;;;;;;;;;;;11.90;62.50;;;;;;5000906;28;19922;-74
2023/04/06 04:11:01;;;;;;;;;;;11.90;62.50;;;;;;4998270;28;20019;-75
2023/04/06 04:13:28;;;;;;;;;;;11.90;62.40;;;;;;4999614;28;19922;-76
2023/04/06 04:15:53;;;;;;;;;;;11.90;62.30;;;;;;4999810;28;19921;-75
2023/04/06 04:18:19;;;;;;;;;;;11.90;62.40;;;;;;4981625;28;20392;-72
2023/04/06 04:20:45;;;;;;;;;;;11.90;62.10;;;;;;4997994;28;20480;-74
2023/04/06 04:23:12;;;;;;;;;;;11.90;62.00;;;;;;5000010;28;19972;-73
2023/04/06 04:25:38;;;;;;;;;;;11.90;62.00;;;;;;5000357;28;19921;-73
2023/04/06 04:28:04;;;;;;;;;;;12.00;61.90;;;;;;4998629;28;20443;-73
2023/04/06 04:30:30;;;;;;;;;;;12.00;61.90;;;;;;4998848;28;19925;-72
2023/04/06 04:32:56;;;;;;;;;;;12.00;61.80;;;;;;4999548;28;19925;-73
2023/04/06 04:35:23;;;;;;;;;;;12.00;61.80;;;;;;4999286;28;19925;-72
2023/04/06 04:37:50;;;;;;;;;;;12.00;61.90;;;;;;4996815;28;20610;-71
2023/04/06 04:40:16;;;;;;;;;;;12.00;61.60;;;;;;4999262;28;19917;-74
2023/04/06 04:42:53;;;;;;;;;;;12.00;61.50;;;;;;4986754;28;19984;-73
2023/04/06 04:45:30;;;;;;;;;;;12.00;61.70;;;;;;4999733;28;20307;-73
2023/04/06 04:47:58;;;;;;;;;;;12.00;63.00;;;;;;4999536;28;20293;-74
2023/04/06 04:50:29;;;;;;;;;;;12.00;62.60;;;;;;4982736;28;19925;-76
2023/04/06 04:52:57;;;;;;;;;;;12.00;62.70;;;;;;4998671;28;19976;-75
2023/04/06 04:55:25;;;;;;;;;;;12.10;63.00;;;;;;4999322;28;19918;-75
2023/04/06 04:57:54;;;;;;;;;;;12.10;63.20;;;;;;4999268;28;19976;-74
2023/04/06 05:00:25;;;;;;;;;;;12.10;63.00;;;;;;4999244;28;19944;-74
2023/04/06 05:02:55;;;;;;;;;;;12.10;63.20;;;;;;4997350;28;19921;-75
2023/04/06 05:05:30;;;;;;;;;;;12.10;63.10;;;;;;4994628;28;19929;-75
2023/04/06 05:07:56;;;;;;;;;;;12.20;63.20;;;;;;4976893;28;19918;-75
2023/04/06 05:10:47;;;;;;;;;;;12.40;63.10;;;;;;5011156;28;20202;-76
2023/04/06 05:13:14;;;;;;;;;;;12.60;63.00;;;;;;4996910;28;20004;-75
2023/04/06 05:15:40;;;;;;;;;;;12.80;62.60;;;;;;4998586;28;19925;-75
2023/04/06 05:18:18;;;;;;;;;;;13.00;62.10;;;;;;4995514;28;20400;-75
2023/04/06 05:20:45;;;;;;;;;;;13.20;61.40;;;;;;4998303;28;19926;-75
2023/04/06 05:23:11;;;;;;;;;;;13.40;60.80;;;;;;5014414;28;19970;-75
2023/04/06 05:25:37;;;;;;;;;;;13.60;60.20;;;;;;4999349;28;20012;-75
2023/04/06 05:28:16;;;;;;;;;;;13.80;59.80;;;;;;4982620;28;19921;-75
2023/04/06 05:30:43;;;;;;;;;;;14.00;59.50;;;;;;4997936;28;20285;-75
2023/04/06 05:33:11;;;;;;;;;;;14.30;59.10;;;;;;5004184;28;20377;-75
2023/04/06 05:35:50;;;;;;;;;;;14.50;58.50;;;;;;4996246;28;19925;-75
2023/04/06 05:38:17;;;;;;;;;;;14.70;58.50;;;;;;4997363;28;19992;-74
2023/04/06 05:40:42;;;;;;;;;;;14.90;58.30;;;;;;5001542;28;20411;-75
2023/04/06 05:43:13;;;;;;;;;;;15.00;58.40;;;;;;5050690;28;19929;-75
2023/04/06 05:45:44;;;;;;;;;;;15.10;57.90;;;;;;5016081;28;19920;-75
2023/04/06 05:48:10;;;;;;;;;;;15.30;57.70;;;;;;5032700;28;19928;-75
2023/04/06 05:50:35;;;;;;;;;;;15.50;57.30;;;;;;5015997;28;19922;-79
2023/04/06 05:53:02;;;;;;;;;;;15.70;57.20;;;;;;5015581;28;19917;-73
2023/04/06 05:55:34;;;;;;;;;;;15.80;56.90;;;;;;5032473;28;20361;-74
2023/04/06 05:58:26;;;;;;;;;;;16.00;57.20;;;;;;5031814;28;20011;-76
2023/04/06 06:00:57;;;;;;;;;;;16.20;57.30;;;;;;5020490;28;19928;-74
2023/04/06 06:03:24;;;;;;;;;;;16.30;54.70;;;;;;5049618;28;20420;-75
2023/04/06 06:05:53;;;;;;;;;;;16.20;52.90;;;;;;5016573;28;19928;-74
2023/04/06 06:08:27;;;;;;;;;;;16.20;52.50;;;;;;5015522;28;19944;-75
2023/04/06 06:10:54;;;;;;;;;;;16.20;52.80;;;;;;5031514;28;20003;-74
2023/04/06 06:13:23;;;;;;;;;;;16.30;51.80;;;;;;5017700;28;20234;-73
2023/04/06 06:15:50;;;;;;;;;;;16.30;51.70;;;;;;5033327;28;19961;-74
2023/04/06 06:18:18;;;;;;;;;;;16.40;51.90;;;;;;5016070;28;20420;-73
2023/04/06 06:20:45;;;;;;;;;;;16.40;52.00;;;;;;5003946;28;20356;-73
2023/04/06 06:23:11;;;;;;;;;;;16.60;51.40;;;;;;5019436;28;19963;-73
2023/04/06 06:25:37;;;;;;;;;;;16.60;50.60;;;;;;5035574;28;19917;-73
2023/04/06 06:28:04;;;;;;;;;;;16.60;50.70;;;;;;5002548;28;19928;-73
2023/04/06 06:30:31;;;;;;;;;;;16.60;50.20;;;;;;5019264;28;19927;-74
2023/04/06 06:32:57;;;;;;;;;;;16.70;50.60;;;;;;5017861;28;19928;-75
2023/04/06 06:35:23;;;;;;;;;;;16.90;50.90;;;;;;5019910;28;19925;-75
2023/04/06 06:37:49;;;;;;;;;;;17.10;50.20;;;;;;5036884;28;19917;-74
2023/04/06 06:40:19;;;;;;;;;;;17.20;49.80;;;;;;5018973;28;19917;-74
2023/04/06 06:42:47;;;;;;;;;;;17.30;49.30;;;;;;5018476;28;19936;-71
2023/04/06 06:45:25;;;;;;;;;;;17.40;49.20;;;;;;5036084;28;19978;-75
2023/04/06 06:47:51;;;;;;;;;;;17.40;49.00;;;;;;5038641;28;20000;-71
2023/04/06 06:50:17;;;;;;;;;;;17.50;48.90;;;;;;5051302;28;20017;-72
2023/04/06 06:52:44;;;;;;;;;;;17.40;48.90;;;;;;5020084;28;19928;-75
2023/04/06 06:55:10;;;;;;;;;;;17.50;48.90;;;;;;5051599;28;20382;-74
2023/04/06 06:57:38;;;;;;;;;;;17.50;48.90;;;;;;5017618;28;19925;-75
2023/04/06 07:00:06;;;;;;;;;;;17.60;49.10;;;;;;5035436;28;19975;-72
2023/04/06 07:02:31;;;;;;;;;;;17.80;49.30;;;;;;5018224;28;19952;-72
2023/04/06 07:04:57;;;;;;;;;;;17.90;48.90;;;;;;5036415;28;20008;-72
2023/04/06 07:07:24;;;;;;;;;;;17.90;48.30;;;;;;5019317;28;19928;-74
2023/04/06 07:09:50;;;;;;;;;;;17.80;48.10;;;;;;5034748;28;19920;-74
2023/04/06 07:12:16;;;;;;;;;;;17.80;48.00;;;;;;5035910;28;19921;-74
2023/04/06 07:14:42;;;;;;;;;;;17.80;48.10;;;;;;5051733;28;19921;-73
2023/04/06 07:17:07;;;;;;;;;;;17.80;48.10;;;;;;5051748;28;19932;-73
2023/04/06 07:19:33;;;;;;;;;;;17.90;48.20;;;;;;5010036;28;20308;-73
2023/04/06 07:22:00;;;;;;;;;;;17.90;48.10;;;;;;5036215;28;19928;-74
2023/04/06 07:24:26;;;;;;;;;;;18.00;47.80;;;;;;5051014;28;19939;-74
2023/04/06 07:26:52;;;;;;;;;;;18.00;47.50;;;;;;5036941;28;19975;-74
2023/04/06 07:29:18;;;;;;;;;;;17.90;47.60;;;;;;5017141;28;20355;-74
2023/04/06 07:31:45;;;;;;;;;;;17.90;47.80;;;;;;5017889;28;20055;-74
2023/04/06 07:34:11;;;;;;;;;;;17.90;47.40;;;;;;5019239;28;19971;-73
2023/04/06 07:36:38;;;;;;;;;;;18.00;47.80;;;;;;5017737;28;19925;-74
2023/04/06 07:39:04;;;;;;;;;;;18.10;47.40;;;;;;5037100;28;20338;-74
2023/04/06 07:41:30;;;;;;;;;;;18.10;47.80;;;;;;5017702;28;19928;-74
2023/04/06 07:43:57;;;;;;;;;;;18.10;47.40;;;;;;5049474;28;19964;-74
2023/04/06 07:46:22;;;;;;;;;;;18.10;47.30;;;;;;5018915;28;19959;-74
2023/04/06 07:48:50;;;;;;;;;;;18.00;47.10;;;;;;5018214;28;19928;-74
2023/04/06 07:51:17;;;;;;;;;;;18.00;47.90;;;;;;5036307;28;19960;-73
2023/04/06 07:53:44;;;;;;;;;;;17.90;47.30;;;;;;5017766;28;19948;-73
2023/04/06 07:56:10;;;;;;;;;;;17.90;47.80;;;;;;5036627;28;19921;-74
2023/04/06 07:58:36;;;;;;;;;;;17.90;47.30;;;;;;5036265;28;20449;-75
2023/04/06 08:01:01;;;;;;;;;;;17.90;47.40;;;;;;5034415;28;19928;-75
2023/04/06 08:03:27;;;;;;;;;;;17.80;46.90;;;;;;5033759;28;19963;-75
2023/04/06 08:05:53;;;;;;;;;;;17.70;47.10;;;;;;5036436;28;19920;-74
2023/04/06 08:08:20;;;;;;;;;;;17.70;47.40;;;;;;5035037;28;19921;-73
2023/04/06 08:10:47;;;;;;;;;;;17.60;47.70;;;;;;5016885;28;19971;-75
2023/04/06 08:13:13;;;;;;;;;;;17.70;47.80;;;;;;5037054;28;19971;-74
2023/04/06 08:15:38;;;;;;;;;;;17.60;47.40;;;;;;5035136;28;19921;-75
2023/04/06 08:18:05;;;;;;;;;;;17.50;47.60;;;;;;5021397;28;21942;-74
2023/04/06 08:20:31;;;;;;;;;;;17.40;47.70;;;;;;5036876;28;19921;-75
2023/04/06 08:22:56;;;;;;;;;;;17.30;47.80;;;;;;5033495;28;19963;-74
2023/04/06 08:25:22;;;;;;;;;;;17.30;48.00;;;;;;5018161;28;20003;-74
2023/04/06 08:27:48;;;;;;;;;;;17.30;48.50;;;;;;5035300;28;19933;-75
2023/04/06 08:30:15;;;;;;;;;;;17.40;48.50;;;;;;5035482;28;19927;-74
2023/04/06 08:32:41;;;;;;;;;;;17.30;47.90;;;;;;5034875;28;19932;-75
2023/04/06 08:35:08;;;;;;;;;;;17.20;47.70;;;;;;5016740;28;19928;-75
2023/04/06 08:37:33;;;;;;;;;;;17.10;47.80;;;;;;5034728;28;19953;-74
2023/04/06 08:39:59;;;;;;;;;;;17.10;47.80;;;;;;5035693;28;19928;-75
2023/04/06 08:42:26;;;;;;;;;;;17.00;47.70;;;;;;5033523;28;19932;-74
2023/04/06 08:44:52;;;;;;;;;;;16.80;47.60;;;;;;5035743;28;20008;-74
2023/04/06 08:47:19;;;;;;;;;;;16.70;47.70;;;;;;5034433;28;19925;-74
2023/04/06 08:49:45;;;;;;;;;;;16.70;48.20;;;;;;5017800;28;20002;-75
2023/04/06 08:52:11;;;;;;;;;;;16.70;48.30;;;;;;5034960;28;19925;-75
2023/04/06 08:54:38;;;;;;;;;;;16.60;48.10;;;;;;5034455;28;20436;-74
2023/04/06 08:57:04;;;;;;;;;;;16.50;48.00;;;;;;5035562;28;20411;-75
2023/04/06 08:59:31;;;;;;;;;;;16.40;48.00;;;;;;5033217;28;19920;-75
2023/04/06 09:01:57;;;;;;;;;;;16.30;48.30;;;;;;5016474;28;19963;-75
2023/04/06 09:04:23;;;;;;;;;;;16.30;48.50;;;;;;5036081;28;19920;-75
2023/04/06 09:06:49;;;;;;;;;;;16.20;48.40;;;;;;5034969;28;19925;-75
2023/04/06 09:09:15;;;;;;;;;;;16.20;48.60;;;;;;5035496;28;19960;-75
2023/04/06 09:11:48;;;;;;;;;;;16.20;48.70;;;;;;5034549;28;19956;-75
2023/04/06 09:14:15;;;;;;;;;;;16.10;48.70;;;;;;5035322;28;20176;-74
2023/04/06 09:16:45;;;;;;;;;;;16.10;48.30;;;;;;5016902;28;19917;-74
2023/04/06 09:19:11;;;;;;;;;;;16.10;48.60;;;;;;5035110;28;20019;-74
2023/04/06 09:21:38;;;;;;;;;;;16.10;48.60;;;;;;5015899;28;20040;-74
2023/04/06 09:24:04;;;;;;;;;;;16.10;48.90;;;;;;5034701;28;19924;-75
2023/04/06 09:26:30;;;;;;;;;;;16.10;48.80;;;;;;5034448;28;19928;-74
2023/04/06 09:28:57;;;;;;;;;;;16.10;48.80;;;;;;5033859;28;19917;-75
2023/04/06 09:31:23;;;;;;;;;;;16.00;48.30;;;;;;5034917;28;19963;-75
2023/04/06 09:33:49;;;;;;;;;;;16.10;48.00;;;;;;5034491;28;20366;-74
2023/04/06 09:36:15;;;;;;;;;;;16.00;48.20;;;;;;5035448;28;20016;-75
2023/04/06 09:38:58;;;;;;;;;;;15.90;47.90;;;;;;5033310;28;20315;-75
2023/04/06 09:41:24;;;;;;;;;;;15.80;47.80;;;;;;5013446;28;19925;-75
2023/04/06 09:43:51;;;;;;;;;;;15.80;48.00;;;;;;5002076;28;19921;-74
2023/04/06 09:46:18;;;;;;;;;;;15.80;48.60;;;;;;5034878;28;19921;-74
2023/04/06 09:48:43;;;;;;;;;;;15.80;48.50;;;;;;5034804;28;19966;-75
2023/04/06 09:51:11;;;;;;;;;;;15.80;48.80;;;;;;5034997;28;19921;-74
2023/04/06 09:53:38;;;;;;;;;;;15.90;49.00;;;;;;5036805;28;19948;-74
2023/04/06 09:56:05;;;;;;;;;;;15.90;48.80;;;;;;5019764;28;19921;-74
2023/04/06 09:58:33;;;;;;;;;;;15.90;48.50;;;;;;5039193;28;19917;-74
2023/04/06 10:01:05;;;;;;;;;;;15.80;48.50;;;;;;5036386;28;19921;-74
2023/04/06 10:03:31;;;;;;;;;;;15.90;49.20;;;;;;5038173;28;19931;-75
2023/04/06 10:06:00;;;;;;;;;;;15.80;48.40;;;;;;5020389;28;19922;-74
2023/04/06 10:08:29;;;;;;;;;;;15.70;48.10;;;;;;5037574;28;19929;-75
2023/04/06 10:10:55;;;;;;;;;;;15.70;48.00;;;;;;5037102;28;20062;-74
2023/04/06 10:13:23;;;;;;;;;;;15.60;48.30;;;;;;5038176;28;19913;-74
2023/04/06 10:15:50;;;;;;;;;;;15.60;48.20;;;;;;5036753;28;20004;-74
2023/04/06 10:18:16;;;;;;;;;;;15.60;48.40;;;;;;5036623;28;19921;-74
2023/04/06 10:21:04;;;;;;;;;;;15.60;48.60;;;;;;5037398;28;19921;-75
2023/04/06 10:23:32;;;;;;;;;;;15.70;48.80;;;;;;5038269;28;19978;-74
2023/04/06 10:25:59;;;;;;;;;;;15.70;48.40;;;;;;5036270;28;19935;-74
2023/04/06 10:28:25;;;;;;;;;;;15.70;48.40;;;;;;5039018;28;20051;-74
2023/04/06 10:30:58;;;;;;;;;;;15.70;48.60;;;;;;5051670;28;19920;-74
2023/04/06 10:33:25;;;;;;;;;;;15.70;48.90;;;;;;5053033;28;19925;-74
2023/04/06 10:35:50;;;;;;;;;;;15.60;47.90;;;;;;5037154;28;19981;-75
2023/04/06 10:38:20;;;;;;;;;;;15.60;47.90;;;;;;5053574;28;19942;-73
2023/04/06 10:40:49;;;;;;;;;;;15.50;48.00;;;;;;5052173;28;19997;-73
2023/04/06 10:43:21;;;;;;;;;;;15.50;48.10;;;;;;5037300;28;21916;-73
2023/04/06 10:45:57;;;;;;;;;;;15.50;48.30;;;;;;5037513;28;19924;-74
2023/04/06 10:48:23;;;;;;;;;;;15.50;48.30;;;;;;5037322;28;19921;-73
2023/04/06 10:50:52;;;;;;;;;;;15.50;48.30;;;;;;5018324;28;19967;-74
2023/04/06 10:53:25;;;;;;;;;;;15.40;48.30;;;;;;5036511;28;19952;-74
2023/04/06 10:55:51;;;;;;;;;;;15.40;48.20;;;;;;5019346;28;20314;-74
2023/04/06 10:58:17;;;;;;;;;;;15.40;48.10;;;;;;5037533;28;20485;-74
2023/04/06 11:00:45;;;;;;;;;;;15.40;48.00;;;;;;5037296;28;19947;-74
2023/04/06 11:03:10;;;;;;;;;;;15.40;48.20;;;;;;5036709;28;19921;-74
2023/04/06 11:05:36;;;;;;;;;;;15.40;48.50;;;;;;5037347;28;19921;-74
2023/04/06 11:08:02;;;;;;;;;;;15.40;48.50;;;;;;5036284;28;19951;-74
2023/04/06 11:10:29;;;;;;;;;;;15.50;48.60;;;;;;5037292;28;19920;-74
2023/04/06 11:12:56;;;;;;;;;;;15.50;48.20;;;;;;5035860;28;19921;-74
2023/04/06 11:15:22;;;;;;;;;;;15.50;48.50;;;;;;5019642;28;19947;-74
2023/04/06 11:17:49;;;;;;;;;;;15.50;48.20;;;;;;5036594;28;19925;-73
2023/04/06 11:20:15;;;;;;;;;;;15.50;48.00;;;;;;5018225;28;19928;-73
2023/04/06 11:22:51;;;;;;;;;;;15.50;48.40;;;;;;5037937;28;19923;-73
2023/04/06 11:25:17;;;;;;;;;;;15.50;48.40;;;;;;5019595;28;20340;-74
2023/04/06 11:27:43;;;;;;;;;;;15.50;48.60;;;;;;5036651;28;19921;-74
2023/04/06 11:30:09;;;;;;;;;;;15.60;48.70;;;;;;5035672;28;19975;-76
2023/04/06 11:32:45;;;;;;;;;;;15.60;48.60;;;;;;5034979;28;19921;-74
2023/04/06 11:35:21;;;;;;;;;;;15.60;48.40;;;;;;5036034;28;19920;-74
2023/04/06 11:37:48;;;;;;;;;;;15.60;48.20;;;;;;5036503;28;19917;-74
2023/04/06 11:40:14;;;;;;;;;;;15.60;48.10;;;;;;5019227;28;20012;-74
2023/04/06 11:42:40;;;;;;;;;;;15.60;48.10;;;;;;5036013;28;20024;-74
2023/04/06 11:45:07;;;;;;;;;;;15.50;48.10;;;;;;5018717;28;21072;-74
2023/04/06 11:47:33;;;;;;;;;;;15.50;47.90;;;;;;5035891;28;19921;-74
2023/04/06 11:50:25;;;;;;;;;;;15.40;48.00;;;;;;5016467;28;19917;-75
2023/04/06 11:53:01;;;;;;;;;;;15.50;48.40;;;;;;5014782;28;19913;-75
2023/04/06 11:55:27;;;;;;;;;;;15.60;48.60;;;;;;5018901;28;19913;-75
2023/04/06 11:57:53;;;;;;;;;;;15.50;48.10;;;;;;5034838;28;20406;-74
2023/04/06 12:00:20;;;;;;;;;;;15.50;48.10;;;;;;5035437;28;19932;-74
2023/04/06 12:02:46;;;;;;;;;;;15.60;48.40;;;;;;5034917;28;20010;-74
2023/04/06 12:05:12;;;;;;;;;;;15.60;48.40;;;;;;5017594;28;20314;-75
2023/04/06 12:07:38;;;;;;;;;;;15.60;49.10;;;;;;5035287;28;19921;-75
2023/04/06 12:10:04;;;;;;;;;;;15.60;47.90;;;;;;5035669;28;19920;-74
2023/04/06 12:12:30;;;;;;;;;;;15.50;47.80;;;;;;5034403;28;19928;-74
2023/04/06 12:14:56;;;;;;;;;;;15.60;48.40;;;;;;5037546;28;20442;-74
2023/04/06 12:17:23;;;;;;;;;;;15.60;48.50;;;;;;5044430;28;19921;-74
2023/04/06 12:19:49;;;;;;;;;;;15.60;48.40;;;;;;5050653;28;19920;-74
2023/04/06 12:22:14;;;;;;;;;;;15.60;48.80;;;;;;5041642;28;20292;-73
2023/04/06 12:24:40;;;;;;;;;;;15.60;48.40;;;;;;5048780;28;20024;-73
2023/04/06 12:27:06;;;;;;;;;;;15.60;48.20;;;;;;5048104;28;19921;-73
2023/04/06 12:29:32;;;;;;;;;;;15.50;48.20;;;;;;5041701;28;19988;-73
2023/04/06 12:32:01;;;;;;;;;;;15.60;48.60;;;;;;5029251;28;19986;-73
2023/04/06 12:34:27;;;;;;;;;;;15.60;48.30;;;;;;5047007;28;20349;-73
2023/04/06 12:36:52;;;;;;;;;;;15.70;48.50;;;;;;5046329;28;19921;-75
2023/04/06 12:39:18;;;;;;;;;;;15.70;48.10;;;;;;5035872;28;19925;-74
2023/04/06 12:41:44;;;;;;;;;;;15.60;48.20;;;;;;5015994;28;20014;-75
2023/04/06 12:44:11;;;;;;;;;;;15.70;48.40;;;;;;5034772;28;19925;-75
2023/04/06 12:46:38;;;;;;;;;;;15.60;48.10;;;;;;5047576;28;20218;-75
2023/04/06 12:49:04;;;;;;;;;;;15.70;48.40;;;;;;5031999;28;20422;-75
2023/04/06 12:51:33;;;;;;;;;;;15.70;48.30;;;;;;5035299;28;19921;-73
2023/04/06 12:53:59;;;;;;;;;;;15.70;48.80;;;;;;5048406;28;19931;-75
2023/04/06 12:56:25;;;;;;;;;;;15.70;48.50;;;;;;5043534;28;19925;-74
2023/04/06 12:58:51;;;;;;;;;;;15.80;48.50;;;;;;5036457;28;20386;-74
2023/04/06 13:01:17;;;;;;;;;;;15.70;48.30;;;;;;5047783;28;19917;-72
2023/04/06 13:03:43;;;;;;;;;;;15.70;48.20;;;;;;5040777;28;20059;-75
2023/04/06 13:06:09;;;;;;;;;;;15.80;48.70;;;;;;5043085;28;19928;-75
2023/04/06 13:08:37;;;;;;;;;;;15.80;48.60;;;;;;5065433;28;19971;-73
2023/04/06 13:11:02;;;;;;;;;;;15.70;48.40;;;;;;5053699;28;20404;-72
2023/04/06 13:13:29;;;;;;;;;;;15.80;48.80;;;;;;5042408;28;19921;-72
2023/04/06 13:15:59;;;;;;;;;;;15.80;48.20;;;;;;5035907;28;19921;-72
2023/04/06 13:18:24;;;;;;;;;;;15.80;48.30;;;;;;5034586;28;19935;-72
2023/04/06 13:20:50;;;;;;;;;;;15.80;48.50;;;;;;5034223;28;19924;-75
2023/04/06 13:23:16;;;;;;;;;;;15.80;48.50;;;;;;5016564;28;19921;-75
2023/04/06 13:25:42;;;;;;;;;;;15.80;48.30;;;;;;5017612;28;19939;-75
2023/04/06 13:28:08;;;;;;;;;;;15.80;48.30;;;;;;5037543;28;20001;-75
2023/04/06 13:30:34;;;;;;;;;;;15.80;47.70;;;;;;5037516;28;19932;-75
2023/04/06 13:33:00;;;;;;;;;;;15.80;47.90;;;;;;5036987;28;19927;-75
2023/04/06 13:35:26;;;;;;;;;;;15.70;47.60;;;;;;5035404;28;20318;-75
2023/04/06 13:37:52;;;;;;;;;;;15.70;47.60;;;;;;5035390;28;19917;-75
2023/04/06 13:40:18;;;;;;;;;;;15.70;47.10;;;;;;5035995;28;19917;-75
2023/04/06 13:42:46;;;;;;;;;;;15.60;47.00;;;;;;5036318;28;19929;-75
2023/04/06 13:45:11;;;;;;;;;;;15.60;47.30;;;;;;5053463;28;19925;-75
2023/04/06 13:47:37;;;;;;;;;;;15.60;47.40;;;;;;5037519;28;19982;-76
2023/04/06 13:50:03;;;;;;;;;;;15.70;47.60;;;;;;5020306;28;20454;-76
2023/04/06 13:52:29;;;;;;;;;;;15.70;47.50;;;;;;5037481;28;19921;-76
2023/04/06 13:54:55;;;;;;;;;;;15.70;47.20;;;;;;5037211;28;19921;-76
2023/04/06 13:57:21;;;;;;;;;;;15.70;47.10;;;;;;5038084;28;19948;-75
2023/04/06 13:59:49;;;;;;;;;;;15.60;46.00;;;;;;5037934;28;19941;-76
2023/04/06 14:02:15;;;;;;;;;;;15.60;45.90;;;;;;5036514;28;19925;-75
2023/04/06 14:04:41;;;;;;;;;;;15.60;46.00;;;;;;5020776;28;19928;-75
2023/04/06 14:07:07;;;;;;;;;;;15.60;45.50;;;;;;5052439;28;19920;-75
2023/04/06 14:09:33;;;;;;;;;;;15.60;45.60;;;;;;5038259;28;19921;-75
2023/04/06 14:11:59;;;;;;;;;;;15.50;45.80;;;;;;5037663;28;19932;-77
2023/04/06 14:14:25;;;;;;;;;;;15.60;45.90;;;;;;5035544;28;20016;-77
2023/04/06 14:16:51;;;;;;;;;;;15.60;46.10;;;;;;5039182;28;20008;-77
2023/04/06 14:19:18;;;;;;;;;;;15.60;45.90;;;;;;5038786;28;20014;-77